createdAt,value
2018-11-22T00:01:32.400Z,88.49
2018-11-22T00:04:20.033Z,88.46
2018-11-22T00:07:07.749Z,89.19
2018-11-22T00:09:55.433Z,89.19
2018-11-22T00:12:43.009Z,89.00
2018-11-22T00:15:31.038Z,89.12
2018-11-22T00:18:18.897Z,89.37
2018-11-22T00:20:47.470Z,89.39
2018-11-22T00:23:35.132Z,89.42
2018-11-22T00:26:22.787Z,88.97
2018-11-22T00:29:10.458Z,89.20
2018-11-22T00:31:58.681Z,89.12
2018-11-22T00:34:45.705Z,88.74
2018-11-22T00:37:33.302Z,89.10
2018-11-22T00:40:21.088Z,90.31
2018-11-22T00:43:08.746Z,90.56
2018-11-22T00:45:37.304Z,90.18
2018-11-22T00:48:24.968Z,89.21
2018-11-22T00:51:12.650Z,89.10
2018-11-22T00:54:00.343Z,89.10
2018-11-22T00:56:48.143Z,88.71
2018-11-22T00:59:35.806Z,88.38
2018-11-22T01:02:23.466Z,88.03
2018-11-22T01:05:11.081Z,88.75
2018-11-22T01:07:58.813Z,88.73
2018-11-22T01:10:46.470Z,89.91
2018-11-22T01:13:34.175Z,89.41
2018-11-22T01:16:02.752Z,89.15
2018-11-22T01:18:50.515Z,88.37
2018-11-22T01:21:38.132Z,88.93
2018-11-22T01:24:25.760Z,88.65
2018-11-22T01:27:13.361Z,88.62
2018-11-22T01:30:01.033Z,88.46
2018-11-22T01:32:48.621Z,88.90
2018-11-22T01:35:36.348Z,88.62
2018-11-22T01:38:23.993Z,89.24
2018-11-22T01:41:11.646Z,89.26
2018-11-22T01:43:59.273Z,88.79
2018-11-22T01:46:46.888Z,88.41
2018-11-22T01:49:34.506Z,88.45
2018-11-22T01:52:22.096Z,88.54
2018-11-22T01:54:50.676Z,88.48
2018-11-22T01:57:19.267Z,89.17
2018-11-22T02:00:06.993Z,89.20
2018-11-22T02:02:35.663Z,88.75
2018-11-22T02:05:04.686Z,88.86
2018-11-22T02:07:52.239Z,89.20
2018-11-22T02:10:22.004Z,89.81
2018-11-22T02:12:50.603Z,89.05
2018-11-22T02:15:38.381Z,89.15
2018-11-22T02:18:26.002Z,89.09
2018-11-22T02:20:54.852Z,88.84
2018-11-22T02:23:42.393Z,88.74
2018-11-22T02:26:29.965Z,89.29
2018-11-22T02:28:58.578Z,89.58
2018-11-22T02:34:02.172Z,89.66
2018-11-22T02:36:31.019Z,90.46
2018-11-22T02:38:59.754Z,90.65
2018-11-22T02:41:28.248Z,91.20
2018-11-22T02:44:15.835Z,91.80
2018-11-22T02:47:03.543Z,91.86
2018-11-22T02:49:51.096Z,91.49
2018-11-22T02:52:38.761Z,91.13
2018-11-22T02:55:26.663Z,91.16
2018-11-22T02:58:14.337Z,90.66
2018-11-22T03:01:01.944Z,90.38
2018-11-22T03:03:49.808Z,90.32
2018-11-22T03:06:37.357Z,90.63
2018-11-22T03:09:27.922Z,90.14
2018-11-22T03:12:15.514Z,89.66
2018-11-22T03:15:03.213Z,89.73
2018-11-22T03:17:50.769Z,90.12
2018-11-22T03:22:53.464Z,89.56
2018-11-22T03:25:22.312Z,89.52
2018-11-22T03:28:09.901Z,89.39
2018-11-22T03:30:57.497Z,89.67
2018-11-22T03:33:45.157Z,89.48
2018-11-22T03:36:32.757Z,89.61
2018-11-22T03:39:20.441Z,89.87
2018-11-22T03:42:08.246Z,89.52
2018-11-22T03:44:55.815Z,90.25
2018-11-22T03:47:43.401Z,90.03
2018-11-22T03:50:13.893Z,89.93
2018-11-22T03:53:01.686Z,90.17
2018-11-22T03:55:49.315Z,89.77
2018-11-22T03:58:36.856Z,89.75
2018-11-22T04:01:24.794Z,90.88
2018-11-22T04:04:12.405Z,91.05
2018-11-22T04:07:00.019Z,90.59
2018-11-22T04:09:47.649Z,90.05
2018-11-22T04:12:35.322Z,89.37
2018-11-22T04:15:22.857Z,89.97
2018-11-22T04:18:10.629Z,89.84
2018-11-22T04:20:58.272Z,90.03
2018-11-22T04:23:45.835Z,89.26
2018-11-22T04:26:33.446Z,90.46
2018-11-22T04:29:21.163Z,90.15
2018-11-22T04:31:49.690Z,90.18
2018-11-22T04:34:37.308Z,89.93
2018-11-22T04:37:24.905Z,89.59
2018-11-22T04:40:12.650Z,89.68
2018-11-22T04:43:00.284Z,90.02
2018-11-22T04:45:47.945Z,89.86
2018-11-22T04:48:35.522Z,89.62
2018-11-22T04:51:23.271Z,89.31
2018-11-22T04:54:10.893Z,89.16
2018-11-22T04:56:58.650Z,88.88
2018-11-22T04:59:46.263Z,88.22
2018-11-22T05:02:33.923Z,88.60
2018-11-22T05:05:02.490Z,88.36
2018-11-22T05:07:50.128Z,89.05
2018-11-22T05:10:37.729Z,89.05
2018-11-22T05:13:25.747Z,88.46
2018-11-22T05:16:13.309Z,88.70
2018-11-22T05:19:00.898Z,88.75
2018-11-22T05:21:48.472Z,88.55
2018-11-22T05:24:36.130Z,89.01
2018-11-22T05:27:24.141Z,88.78
2018-11-22T05:30:11.797Z,88.43
2018-11-22T05:32:59.333Z,88.56
2018-11-22T05:38:21.148Z,88.53
2018-11-22T05:41:08.814Z,88.36
2018-11-22T05:43:56.474Z,88.48
2018-11-22T05:46:44.232Z,88.48
2018-11-22T05:49:31.846Z,88.52
2018-11-22T05:52:19.502Z,88.65
2018-11-22T05:55:07.160Z,89.08
2018-11-22T05:57:54.817Z,87.06
2018-11-22T06:00:42.489Z,87.14
2018-11-22T06:03:30.144Z,86.73
2018-11-22T06:06:17.734Z,86.49
2018-11-22T06:11:39.494Z,85.97
2018-11-22T06:14:27.142Z,86.41
2018-11-22T06:17:16.394Z,86.89
2018-11-22T06:20:02.723Z,87.04
2018-11-22T06:22:50.307Z,86.96
2018-11-22T06:25:37.977Z,86.77
2018-11-22T06:28:25.676Z,86.81
2018-11-22T06:31:13.341Z,86.99
2018-11-22T06:34:01.025Z,86.88
2018-11-22T06:36:48.660Z,85.97
2018-11-22T06:39:17.288Z,85.43
2018-11-22T06:42:04.905Z,85.66
2018-11-22T06:44:52.499Z,85.63
2018-11-22T06:47:40.185Z,85.70
2018-11-22T06:50:28.506Z,85.38
2018-11-22T06:53:16.341Z,85.38
2018-11-22T06:56:03.893Z,85.81
2018-11-22T06:58:51.497Z,86.20
2018-11-22T07:01:39.069Z,85.97
2018-11-22T07:04:26.835Z,86.18
2018-11-22T07:07:14.473Z,86.76
2018-11-22T07:10:02.112Z,86.77
2018-11-22T07:12:49.709Z,87.43
2018-11-22T07:15:37.410Z,87.18
2018-11-22T07:18:25.324Z,87.50
2018-11-22T07:21:13.043Z,87.26
2018-11-22T07:23:41.604Z,87.50
2018-11-22T07:26:29.289Z,87.19
2018-11-22T07:29:16.866Z,87.73
2018-11-22T07:32:04.607Z,88.22
2018-11-22T07:34:52.230Z,88.53
2018-11-22T07:39:55.821Z,88.62
2018-11-22T07:42:24.549Z,87.77
2018-11-22T07:45:12.186Z,87.81
2018-11-22T07:48:00.056Z,87.95
2018-11-22T07:50:28.705Z,87.99
2018-11-22T07:53:16.374Z,87.65
2018-11-22T07:56:03.910Z,87.13
2018-11-22T07:58:51.721Z,87.32
2018-11-22T08:01:39.229Z,87.22
2018-11-22T08:04:26.897Z,86.70
2018-11-22T08:07:14.477Z,86.67
2018-11-22T08:10:02.105Z,86.43
2018-11-22T08:12:30.755Z,85.31
2018-11-22T08:15:18.544Z,85.31
2018-11-22T08:18:06.088Z,84.86
2018-11-22T08:20:53.837Z,84.68
2018-11-22T08:23:41.530Z,84.09
2018-11-22T08:26:29.118Z,83.90
2018-11-22T08:29:16.739Z,83.74
2018-11-22T08:32:04.326Z,83.13
2018-11-22T08:34:51.918Z,83.14
2018-11-22T08:37:39.686Z,82.72
2018-11-22T08:40:29.025Z,82.39
2018-11-22T08:43:16.718Z,82.18
2018-11-22T08:45:45.300Z,82.43
2018-11-22T08:48:33.040Z,82.08
2018-11-22T08:51:20.602Z,82.18
2018-11-22T08:54:08.488Z,81.65
2018-11-22T08:56:56.049Z,82.06
2018-11-22T08:59:43.742Z,81.65
2018-11-22T09:02:31.326Z,81.14
2018-11-22T09:05:19.113Z,81.81
2018-11-22T09:08:06.714Z,81.60
2018-11-22T09:10:54.305Z,81.10
2018-11-22T09:13:41.953Z,81.43
2018-11-22T09:16:29.718Z,81.09
2018-11-22T09:19:17.431Z,80.95
2018-11-22T09:22:05.181Z,81.02
2018-11-22T09:24:52.893Z,80.73
2018-11-22T09:27:40.652Z,80.18
2018-11-22T09:30:30.140Z,80.23
2018-11-22T09:33:18.053Z,80.62
2018-11-22T09:36:05.760Z,80.38
2018-11-22T09:38:53.609Z,80.21
2018-11-22T09:41:41.327Z,80.27
2018-11-22T09:44:29.092Z,79.35
2018-11-22T09:47:16.788Z,79.69
2018-11-22T09:50:04.679Z,78.81
2018-11-22T09:52:52.472Z,78.83
2018-11-22T09:55:40.132Z,79.09
2018-11-22T09:58:27.930Z,77.99
2018-11-22T10:01:15.724Z,79.11
2018-11-22T10:04:03.393Z,79.24
2018-11-22T10:06:51.052Z,78.24
2018-11-22T10:09:38.648Z,78.71
2018-11-22T10:12:26.380Z,78.92
2018-11-22T10:14:55.196Z,78.09
2018-11-22T10:17:42.860Z,78.43
2018-11-22T10:20:31.769Z,77.51
2018-11-22T10:23:19.628Z,77.02
2018-11-22T10:26:07.327Z,76.87
2018-11-22T10:28:54.992Z,76.69
2018-11-22T10:31:42.751Z,76.94
2018-11-22T10:34:30.316Z,77.14
2018-11-22T10:37:17.887Z,76.97
2018-11-22T10:40:05.634Z,76.63
2018-11-22T10:42:53.224Z,76.70
2018-11-22T10:45:40.926Z,75.61
2018-11-22T10:48:28.614Z,76.25
2018-11-22T10:51:16.510Z,77.08
2018-11-22T10:54:04.246Z,76.22
2018-11-22T10:56:51.930Z,76.27
2018-11-22T10:59:39.728Z,76.12
2018-11-22T11:02:27.482Z,76.71
2018-11-22T11:05:15.138Z,75.57
2018-11-22T11:08:02.752Z,76.05
2018-11-22T11:10:50.438Z,76.84
2018-11-22T11:13:38.220Z,76.55
2018-11-22T11:16:25.901Z,76.13
2018-11-22T11:19:13.701Z,75.94
2018-11-22T11:22:01.370Z,76.58
2018-11-22T11:24:49.151Z,76.99
2018-11-22T11:27:36.833Z,77.25
2018-11-22T11:30:25.944Z,77.19
2018-11-22T11:33:13.629Z,76.86
2018-11-22T11:36:01.301Z,77.78
2018-11-22T11:38:48.911Z,77.31
2018-11-22T11:41:36.747Z,76.70
2018-11-22T11:44:24.457Z,76.24
2018-11-22T11:47:12.135Z,76.17
2018-11-22T11:49:59.921Z,76.00
2018-11-22T11:52:47.673Z,75.83
2018-11-22T11:55:35.412Z,75.88
2018-11-22T11:58:04.159Z,75.53
2018-11-22T12:00:51.804Z,74.41
2018-11-22T12:03:39.578Z,74.64
2018-11-22T12:06:27.369Z,75.37
2018-11-22T12:09:15.185Z,74.63
2018-11-22T12:12:02.947Z,75.72
2018-11-22T12:14:50.929Z,75.43
2018-11-22T12:17:38.611Z,75.53
2018-11-22T12:20:27.328Z,75.98
2018-11-22T12:23:15.000Z,75.95
2018-11-22T12:26:02.829Z,75.59
2018-11-22T12:28:50.573Z,75.70
2018-11-22T12:31:38.409Z,75.81
2018-11-22T12:34:26.031Z,75.77
2018-11-22T12:47:36.621Z,76.19
2018-11-22T12:50:06.568Z,75.84
2018-11-22T12:52:54.317Z,76.11
2018-11-22T12:55:42.078Z,75.41
2018-11-22T12:58:29.777Z,75.94
2018-11-22T13:01:17.628Z,76.04
2018-11-22T13:04:05.356Z,76.42
2018-11-22T13:06:53.341Z,76.48
2018-11-22T13:09:41.120Z,76.07
2018-11-22T13:12:28.894Z,75.84
2018-11-22T13:15:16.588Z,76.39
2018-11-22T13:18:04.253Z,77.13
2018-11-22T13:20:51.949Z,76.85
2018-11-22T13:23:39.716Z,76.41
2018-11-22T13:26:27.413Z,76.29
2018-11-22T13:29:15.190Z,76.68
2018-11-22T13:32:02.881Z,77.27
2018-11-22T13:34:50.671Z,77.02
2018-11-22T13:37:38.442Z,77.77
2018-11-22T13:40:27.551Z,77.69
2018-11-22T13:43:15.265Z,78.32
2018-11-22T13:46:02.924Z,78.24
2018-11-22T13:48:50.672Z,78.45
2018-11-22T13:51:38.272Z,78.63
2018-11-22T13:54:26.022Z,78.39
2018-11-22T13:57:13.738Z,78.16
2018-11-22T13:59:42.406Z,78.21
2018-11-22T14:02:30.135Z,77.96
2018-11-22T14:05:17.741Z,77.77
2018-11-22T14:08:05.416Z,77.64
2018-11-22T14:10:58.452Z,78.43
2018-11-22T14:13:40.794Z,78.39
2018-11-22T14:16:28.493Z,78.52
2018-11-22T14:19:16.318Z,78.91
2018-11-22T14:22:03.937Z,79.29
2018-11-22T14:24:51.601Z,79.02
2018-11-22T14:27:20.403Z,78.82
2018-11-22T14:30:08.023Z,79.37
2018-11-22T14:32:55.616Z,79.28
2018-11-22T14:35:43.364Z,79.75
2018-11-22T14:38:30.944Z,80.02
2018-11-22T14:41:18.650Z,79.95
2018-11-22T14:44:06.256Z,80.27
2018-11-22T14:46:53.927Z,80.29
2018-11-22T14:49:41.605Z,80.19
2018-11-22T14:52:29.272Z,80.10
2018-11-22T14:54:58.256Z,79.89
2018-11-22T14:57:45.898Z,79.55
2018-11-22T15:00:33.809Z,79.48
2018-11-22T15:03:21.662Z,79.31
2018-11-22T15:05:50.342Z,79.02
2018-11-22T15:08:37.982Z,79.04
2018-11-22T15:11:25.580Z,79.93
2018-11-22T15:13:54.424Z,80.55
2018-11-22T15:16:25.323Z,81.17
2018-11-22T15:19:13.090Z,81.04
2018-11-22T15:22:00.870Z,81.06
2018-11-22T15:24:48.544Z,81.24
2018-11-22T15:27:36.130Z,81.48
2018-11-22T15:30:25.684Z,81.71
2018-11-22T15:33:13.554Z,81.94
2018-11-22T15:36:01.230Z,82.12
2018-11-22T15:38:48.913Z,82.56
2018-11-22T15:41:36.702Z,83.03
2018-11-22T15:44:24.684Z,82.96
2018-11-22T15:47:12.360Z,82.68
2018-11-22T15:49:59.955Z,82.48
2018-11-22T15:52:47.705Z,83.39
2018-11-22T15:55:21.061Z,83.38
2018-11-22T15:57:47.285Z,83.50
2018-11-22T16:00:36.280Z,83.62
2018-11-22T16:03:23.834Z,83.66
2018-11-22T16:06:11.574Z,83.42
2018-11-22T16:08:59.345Z,83.62
2018-11-22T16:11:47.122Z,83.97
2018-11-22T16:14:34.825Z,82.89
2018-11-22T16:17:22.603Z,83.23
2018-11-22T16:20:10.216Z,83.84
2018-11-22T16:22:57.858Z,84.15
2018-11-22T16:25:26.617Z,84.36
2018-11-22T16:28:14.363Z,84.07
2018-11-22T16:31:01.965Z,84.64
2018-11-22T16:33:49.988Z,84.63
2018-11-22T16:36:37.628Z,85.53
2018-11-22T16:39:27.446Z,86.23
2018-11-22T16:42:15.140Z,86.49
2018-11-22T16:45:02.863Z,86.67
2018-11-22T16:47:31.593Z,86.44
2018-11-22T16:50:19.357Z,87.07
2018-11-22T16:53:07.125Z,87.70
2018-11-22T16:55:35.903Z,87.95
2018-11-22T16:58:23.645Z,88.33
2018-11-22T17:01:11.419Z,88.55
2018-11-22T17:03:59.020Z,88.80
2018-11-22T17:06:46.698Z,89.12
2018-11-22T17:09:34.472Z,89.16
2018-11-22T17:12:22.174Z,89.08
2018-11-22T17:15:09.708Z,88.46
2018-11-22T17:17:57.401Z,88.79
2018-11-22T17:20:45.110Z,89.28
2018-11-22T17:23:32.803Z,88.39
2018-11-22T17:26:20.394Z,87.53
2018-11-22T17:29:07.977Z,87.84
2018-11-22T17:31:55.617Z,88.75
2018-11-22T17:34:43.301Z,88.69
2018-11-22T17:37:30.863Z,89.43
2018-11-22T17:40:18.495Z,89.67
2018-11-22T17:43:06.138Z,89.61
2018-11-22T17:45:53.786Z,90.13
2018-11-22T17:48:22.414Z,88.86
2018-11-22T17:51:10.017Z,88.86
2018-11-22T17:53:57.608Z,89.28
2018-11-22T17:56:45.297Z,89.79
2018-11-22T17:59:13.854Z,90.51
2018-11-22T18:02:01.498Z,90.73
2018-11-22T18:04:49.033Z,90.91
2018-11-22T18:07:36.655Z,89.93
2018-11-22T18:10:24.441Z,90.55
2018-11-22T18:13:12.223Z,90.16
2018-11-22T18:15:59.831Z,89.93
2018-11-22T18:18:47.444Z,90.37
2018-11-22T18:21:35.100Z,90.38
2018-11-22T18:24:22.695Z,90.94
2018-11-22T18:26:58.531Z,90.51
2018-11-22T18:29:46.184Z,90.08
2018-11-22T18:32:33.902Z,90.56
2018-11-22T18:35:21.573Z,90.36
2018-11-22T18:38:09.298Z,90.34
2018-11-22T18:40:56.940Z,90.16
2018-11-22T18:46:19.285Z,89.60
2018-11-22T18:49:06.879Z,90.45
2018-11-22T18:51:35.677Z,90.09
2018-11-22T18:54:23.369Z,90.59
2018-11-22T18:57:10.953Z,90.75
2018-11-22T18:59:58.581Z,90.41
2018-11-22T19:02:46.232Z,91.01
2018-11-22T19:05:33.908Z,91.78
2018-11-22T19:08:21.595Z,90.97
2018-11-22T19:10:50.306Z,91.23
2018-11-22T19:13:37.884Z,90.76
2018-11-22T19:16:25.645Z,91.48
2018-11-22T19:19:13.250Z,91.38
2018-11-22T19:22:00.930Z,91.11
2018-11-22T19:24:48.610Z,90.88
2018-11-22T19:27:17.982Z,90.66
2018-11-22T19:29:46.583Z,90.76
2018-11-22T19:32:34.489Z,89.88
2018-11-22T19:35:22.050Z,90.05
2018-11-22T19:38:09.761Z,90.59
2018-11-22T19:40:57.436Z,91.41
2018-11-22T19:43:26.104Z,90.72
2018-11-22T19:46:13.791Z,91.05
2018-11-22T19:49:01.414Z,90.92
2018-11-22T19:51:48.984Z,91.01
2018-11-22T19:54:36.681Z,90.32
2018-11-22T19:57:24.709Z,90.42
2018-11-22T20:00:12.458Z,89.74
2018-11-22T20:03:00.048Z,90.29
2018-11-22T20:05:47.646Z,90.32
2018-11-22T20:08:19.110Z,90.60
2018-11-22T20:10:48.096Z,90.84
2018-11-22T20:13:35.903Z,91.46
2018-11-22T20:16:23.882Z,91.74
2018-11-22T20:19:11.552Z,93.00
2018-11-22T20:21:40.258Z,93.23
2018-11-22T20:24:08.838Z,92.58
2018-11-22T20:26:56.474Z,93.96
2018-11-22T20:29:44.074Z,94.24
2018-11-22T20:32:38.669Z,94.22
2018-11-22T20:35:19.514Z,95.11
2018-11-22T20:38:07.272Z,94.78
2018-11-22T20:40:57.447Z,94.68
2018-11-22T20:43:42.542Z,93.39
2018-11-22T20:46:11.358Z,93.78
2018-11-22T20:48:40.051Z,92.54
2018-11-22T20:51:27.625Z,93.29
2018-11-22T20:54:15.424Z,92.88
2018-11-22T20:57:03.083Z,92.62
2018-11-22T20:59:50.819Z,91.80
2018-11-22T21:02:38.415Z,91.08
2018-11-22T21:05:26.206Z,91.46
2018-11-22T21:08:13.794Z,92.04
2018-11-22T21:10:42.496Z,92.48
2018-11-22T21:13:30.014Z,91.82
2018-11-22T21:16:17.796Z,92.08
2018-11-22T21:19:05.396Z,91.69
2018-11-22T21:21:53.158Z,92.01
2018-11-22T21:24:21.799Z,91.69
2018-11-22T21:27:09.479Z,91.68
2018-11-22T21:29:57.237Z,91.81
2018-11-22T21:32:44.832Z,91.43
2018-11-22T21:35:32.395Z,90.86
2018-11-22T21:38:20.014Z,91.04
2018-11-22T21:41:07.729Z,91.84
2018-11-22T21:43:55.347Z,91.73
2018-11-22T21:46:42.911Z,92.00
2018-11-22T21:51:45.699Z,91.64
2018-11-22T21:54:33.412Z,91.93
2018-11-22T21:57:21.017Z,92.27
2018-11-22T22:00:08.649Z,92.15
2018-11-22T22:02:37.199Z,91.50
2018-11-22T22:05:25.409Z,92.17
2018-11-22T22:08:13.094Z,92.45
2018-11-22T22:11:00.759Z,92.10
2018-11-22T22:13:48.454Z,92.13
2018-11-22T22:16:36.434Z,92.62
2018-11-22T22:19:23.914Z,91.84
2018-11-22T22:22:11.651Z,92.28
2018-11-22T22:24:59.206Z,92.38
2018-11-22T22:27:46.862Z,92.48
2018-11-22T22:30:34.567Z,92.17
2018-11-22T22:33:22.282Z,91.73
2018-11-22T22:35:50.903Z,91.99
2018-11-22T22:38:19.726Z,91.76
2018-11-22T22:40:59.118Z,91.80
2018-11-22T22:43:26.545Z,91.47
2018-11-22T22:46:14.283Z,91.51
2018-11-22T22:49:01.906Z,92.22
2018-11-22T22:51:30.490Z,92.22
2018-11-22T22:54:18.124Z,92.21
2018-11-22T22:59:21.682Z,92.02
2018-11-22T23:02:09.382Z,92.40
2018-11-22T23:04:56.978Z,92.65
2018-11-22T23:07:44.659Z,93.15
2018-11-22T23:10:32.255Z,92.51
2018-11-22T23:13:19.870Z,93.09
2018-11-22T23:16:07.636Z,92.43
2018-11-22T23:18:55.531Z,92.03
2018-11-22T23:21:24.253Z,92.20
2018-11-22T23:23:52.926Z,92.43
2018-11-22T23:26:40.591Z,92.37
2018-11-22T23:29:28.204Z,92.28
2018-11-22T23:32:16.101Z,91.51
2018-11-22T23:35:03.562Z,92.00
2018-11-22T23:37:51.234Z,92.43
2018-11-22T23:40:21.137Z,91.78
2018-11-22T23:43:08.870Z,92.42
2018-11-22T23:45:56.558Z,92.36
2018-11-22T23:48:44.146Z,92.00
2018-11-22T23:51:31.697Z,92.19
2018-11-22T23:54:19.435Z,91.59
2018-11-22T23:57:07.065Z,91.24
2018-11-22T23:59:35.782Z,91.68
